sensor_id;sensor_type;location;lat;lon;timestamp;temperature;humidity
30534;DHT22;17318;52.390;9.754;2023-07-13T00:01:17;21.10;92.10
30534;DHT22;17318;52.390;9.754;2023-07-13T00:03:43;21.10;92.10
30534;DHT22;17318;52.390;9.754;2023-07-13T00:06:09;21.00;92.10
30534;DHT22;17318;52.390;9.754;2023-07-13T00:08:35;21.00;92.10
30534;DHT22;17318;52.390;9.754;2023-07-13T00:11:02;21.10;92.10
30534;DHT22;17318;52.390;9.754;2023-07-13T00:13:29;21.00;92.00
30534;DHT22;17318;52.390;9.754;2023-07-13T00:15:56;21.00;92.30
30534;DHT22;17318;52.390;9.754;2023-07-13T00:18:22;21.00;92.40
30534;DHT22;17318;52.390;9.754;2023-07-13T00:20:48;21.00;92.40
30534;DHT22;17318;52.390;9.754;2023-07-13T00:23:14;21.00;92.30
30534;DHT22;17318;52.390;9.754;2023-07-13T00:25:40;21.00;92.30
30534;DHT22;17318;52.390;9.754;2023-07-13T00:28:05;21.00;92.30
30534;DHT22;17318;52.390;9.754;2023-07-13T00:30:31;20.90;92.60
30534;DHT22;17318;52.390;9.754;2023-07-13T00:32:57;21.00;92.50
30534;DHT22;17318;52.390;9.754;2023-07-13T00:35:22;20.90;92.90
30534;DHT22;17318;52.390;9.754;2023-07-13T00:37:48;20.90;92.80
30534;DHT22;17318;52.390;9.754;2023-07-13T00:40:15;20.80;92.70
30534;DHT22;17318;52.390;9.754;2023-07-13T00:42:42;20.80;92.90
30534;DHT22;17318;52.390;9.754;2023-07-13T00:47:55;20.70;93.20
30534;DHT22;17318;52.390;9.754;2023-07-13T00:50:22;20.70;93.30
30534;DHT22;17318;52.390;9.754;2023-07-13T00:52:51;20.70;93.20
30534;DHT22;17318;52.390;9.754;2023-07-13T00:55:18;20.70;93.50
30534;DHT22;17318;52.390;9.754;2023-07-13T00:57:46;20.70;93.50
30534;DHT22;17318;52.390;9.754;2023-07-13T01:00:12;20.60;94.10
30534;DHT22;17318;52.390;9.754;2023-07-13T01:02:40;20.60;93.90
30534;DHT22;17318;52.390;9.754;2023-07-13T01:05:19;20.50;94.10
30534;DHT22;17318;52.390;9.754;2023-07-13T01:07:45;20.50;94.40
30534;DHT22;17318;52.390;9.754;2023-07-13T01:10:12;20.40;94.80
30534;DHT22;17318;52.390;9.754;2023-07-13T01:12:38;20.50;94.40
30534;DHT22;17318;52.390;9.754;2023-07-13T01:15:05;20.50;94.40
30534;DHT22;17318;52.390;9.754;2023-07-13T01:17:33;20.30;94.60
30534;DHT22;17318;52.390;9.754;2023-07-13T01:19:59;20.30;94.60
30534;DHT22;17318;52.390;9.754;2023-07-13T01:22:25;20.20;94.60
30534;DHT22;17318;52.390;9.754;2023-07-13T01:24:53;20.20;94.80
30534;DHT22;17318;52.390;9.754;2023-07-13T01:27:24;20.20;94.90
30534;DHT22;17318;52.390;9.754;2023-07-13T01:29:51;20.20;94.90
30534;DHT22;17318;52.390;9.754;2023-07-13T01:32:22;20.20;95.00
30534;DHT22;17318;52.390;9.754;2023-07-13T01:34:53;20.10;94.90
30534;DHT22;17318;52.390;9.754;2023-07-13T01:37:24;20.10;95.00
30534;DHT22;17318;52.390;9.754;2023-07-13T01:39:49;20.10;95.00
30534;DHT22;17318;52.390;9.754;2023-07-13T01:42:15;20.00;94.80
30534;DHT22;17318;52.390;9.754;2023-07-13T01:44:41;20.00;94.60
30534;DHT22;17318;52.390;9.754;2023-07-13T01:47:07;20.00;94.60
30534;DHT22;17318;52.390;9.754;2023-07-13T01:49:35;20.00;94.60
30534;DHT22;17318;52.390;9.754;2023-07-13T01:52:01;20.00;94.50
30534;DHT22;17318;52.390;9.754;2023-07-13T01:54:26;20.10;94.40
30534;DHT22;17318;52.390;9.754;2023-07-13T01:56:52;20.10;94.40
30534;DHT22;17318;52.390;9.754;2023-07-13T01:59:18;20.00;94.30
30534;DHT22;17318;52.390;9.754;2023-07-13T02:05:06;20.10;94.30
30534;DHT22;17318;52.390;9.754;2023-07-13T02:07:32;20.10;94.20
30534;DHT22;17318;52.390;9.754;2023-07-13T02:09:58;20.10;94.10
30534;DHT22;17318;52.390;9.754;2023-07-13T02:12:23;20.00;94.30
30534;DHT22;17318;52.390;9.754;2023-07-13T02:14:49;20.00;94.30
30534;DHT22;17318;52.390;9.754;2023-07-13T02:17:15;20.00;94.30
30534;DHT22;17318;52.390;9.754;2023-07-13T02:19:41;20.00;94.30
30534;DHT22;17318;52.390;9.754;2023-07-13T02:22:06;20.00;94.30
30534;DHT22;17318;52.390;9.754;2023-07-13T02:24:32;20.10;94.10
30534;DHT22;17318;52.390;9.754;2023-07-13T02:26:58;20.00;94.20
30534;DHT22;17318;52.390;9.754;2023-07-13T02:29:23;20.00;94.30
30534;DHT22;17318;52.390;9.754;2023-07-13T02:31:49;20.00;94.20
30534;DHT22;17318;52.390;9.754;2023-07-13T02:34:15;19.90;94.20
30534;DHT22;17318;52.390;9.754;2023-07-13T02:36:40;19.90;94.00
30534;DHT22;17318;52.390;9.754;2023-07-13T02:39:07;19.90;94.10
30534;DHT22;17318;52.390;9.754;2023-07-13T02:41:32;19.90;94.00
30534;DHT22;17318;52.390;9.754;2023-07-13T02:43:59;19.80;94.10
30534;DHT22;17318;52.390;9.754;2023-07-13T02:46:33;19.80;94.20
30534;DHT22;17318;52.390;9.754;2023-07-13T02:48:59;19.80;94.20
30534;DHT22;17318;52.390;9.754;2023-07-13T02:51:25;19.80;94.30
30534;DHT22;17318;52.390;9.754;2023-07-13T02:53:51;19.80;94.10
30534;DHT22;17318;52.390;9.754;2023-07-13T02:56:17;19.80;94.10
30534;DHT22;17318;52.390;9.754;2023-07-13T02:58:43;19.80;93.90
30534;DHT22;17318;52.390;9.754;2023-07-13T03:01:11;19.80;94.00
30534;DHT22;17318;52.390;9.754;2023-07-13T03:03:38;19.70;94.10
30534;DHT22;17318;52.390;9.754;2023-07-13T03:06:05;19.60;94.00
30534;DHT22;17318;52.390;9.754;2023-07-13T03:08:32;19.50;94.30
30534;DHT22;17318;52.390;9.754;2023-07-13T03:11:03;19.50;94.30
30534;DHT22;17318;52.390;9.754;2023-07-13T03:13:29;19.50;94.20
30534;DHT22;17318;52.390;9.754;2023-07-13T03:15:55;19.50;94.20
30534;DHT22;17318;52.390;9.754;2023-07-13T03:18:20;19.50;94.30
30534;DHT22;17318;52.390;9.754;2023-07-13T03:20:46;19.60;94.00
30534;DHT22;17318;52.390;9.754;2023-07-13T03:23:11;19.60;94.00
30534;DHT22;17318;52.390;9.754;2023-07-13T03:25:37;19.60;93.90
30534;DHT22;17318;52.390;9.754;2023-07-13T03:28:03;19.60;94.00
30534;DHT22;17318;52.390;9.754;2023-07-13T03:30:29;19.50;93.90
30534;DHT22;17318;52.390;9.754;2023-07-13T03:32:55;19.50;93.80
30534;DHT22;17318;52.390;9.754;2023-07-13T03:35:21;19.50;93.80
30534;DHT22;17318;52.390;9.754;2023-07-13T03:37:46;19.50;93.90
30534;DHT22;17318;52.390;9.754;2023-07-13T03:40:13;19.50;93.80
30534;DHT22;17318;52.390;9.754;2023-07-13T03:42:38;19.50;93.80
30534;DHT22;17318;52.390;9.754;2023-07-13T03:45:04;19.40;94.10
30534;DHT22;17318;52.390;9.754;2023-07-13T03:47:30;19.40;93.90
30534;DHT22;17318;52.390;9.754;2023-07-13T03:49:56;19.40;93.80
30534;DHT22;17318;52.390;9.754;2023-07-13T03:52:22;19.30;93.90
30534;DHT22;17318;52.390;9.754;2023-07-13T03:54:47;19.40;93.80
30534;DHT22;17318;52.390;9.754;2023-07-13T03:57:13;19.30;93.80
30534;DHT22;17318;52.390;9.754;2023-07-13T03:59:38;19.40;93.70
30534;DHT22;17318;52.390;9.754;2023-07-13T04:02:04;19.50;93.80
30534;DHT22;17318;52.390;9.754;2023-07-13T04:04:30;19.50;93.60
30534;DHT22;17318;52.390;9.754;2023-07-13T04:06:57;19.50;93.60
30534;DHT22;17318;52.390;9.754;2023-07-13T04:09:24;19.50;93.60
30534;DHT22;17318;52.390;9.754;2023-07-13T04:11:50;19.50;93.60
30534;DHT22;17318;52.390;9.754;2023-07-13T04:14:16;19.50;93.50
30534;DHT22;17318;52.390;9.754;2023-07-13T04:16:42;19.60;93.50
30534;DHT22;17318;52.390;9.754;2023-07-13T04:19:09;19.60;93.40
30534;DHT22;17318;52.390;9.754;2023-07-13T04:21:36;19.60;93.50
30534;DHT22;17318;52.390;9.754;2023-07-13T04:24:03;19.60;93.50
30534;DHT22;17318;52.390;9.754;2023-07-13T04:26:29;19.50;93.60
30534;DHT22;17318;52.390;9.754;2023-07-13T04:28:56;19.60;93.70
30534;DHT22;17318;52.390;9.754;2023-07-13T04:31:22;19.60;93.60
30534;DHT22;17318;52.390;9.754;2023-07-13T04:33:48;19.60;93.70
30534;DHT22;17318;52.390;9.754;2023-07-13T04:36:15;19.50;93.60
30534;DHT22;17318;52.390;9.754;2023-07-13T04:38:41;19.50;93.70
30534;DHT22;17318;52.390;9.754;2023-07-13T04:41:08;19.60;93.70
30534;DHT22;17318;52.390;9.754;2023-07-13T04:43:35;19.60;93.80
30534;DHT22;17318;52.390;9.754;2023-07-13T04:46:06;19.50;93.60
30534;DHT22;17318;52.390;9.754;2023-07-13T04:48:33;19.50;93.70
30534;DHT22;17318;52.390;9.754;2023-07-13T04:51:00;19.40;93.80
30534;DHT22;17318;52.390;9.754;2023-07-13T04:53:27;19.50;93.80
30534;DHT22;17318;52.390;9.754;2023-07-13T04:55:53;19.50;93.80
30534;DHT22;17318;52.390;9.754;2023-07-13T04:58:19;19.40;93.80
30534;DHT22;17318;52.390;9.754;2023-07-13T05:00:45;19.50;93.80
30534;DHT22;17318;52.390;9.754;2023-07-13T05:03:10;19.50;93.90
30534;DHT22;17318;52.390;9.754;2023-07-13T05:05:36;19.50;93.80
30534;DHT22;17318;52.390;9.754;2023-07-13T05:08:02;19.50;93.90
30534;DHT22;17318;52.390;9.754;2023-07-13T05:10:28;19.60;93.90
30534;DHT22;17318;52.390;9.754;2023-07-13T05:12:53;19.60;93.70
30534;DHT22;17318;52.390;9.754;2023-07-13T05:15:21;19.60;93.70
30534;DHT22;17318;52.390;9.754;2023-07-13T05:17:49;19.60;93.80
30534;DHT22;17318;52.390;9.754;2023-07-13T05:20:16;19.70;93.80
30534;DHT22;17318;52.390;9.754;2023-07-13T05:22:42;19.70;93.80
30534;DHT22;17318;52.390;9.754;2023-07-13T05:25:08;19.70;93.70
30534;DHT22;17318;52.390;9.754;2023-07-13T05:27:34;19.70;93.60
30534;DHT22;17318;52.390;9.754;2023-07-13T05:30:01;19.80;93.60
30534;DHT22;17318;52.390;9.754;2023-07-13T05:32:27;19.80;93.40
30534;DHT22;17318;52.390;9.754;2023-07-13T05:34:53;19.80;93.30
30534;DHT22;17318;52.390;9.754;2023-07-13T05:37:19;19.80;93.20
30534;DHT22;17318;52.390;9.754;2023-07-13T05:39:44;19.80;93.20
30534;DHT22;17318;52.390;9.754;2023-07-13T05:42:10;19.80;93.30
30534;DHT22;17318;52.390;9.754;2023-07-13T05:44:35;19.80;93.30
30534;DHT22;17318;52.390;9.754;2023-07-13T05:47:01;19.70;93.40
30534;DHT22;17318;52.390;9.754;2023-07-13T05:49:27;19.80;93.30
30534;DHT22;17318;52.390;9.754;2023-07-13T05:51:52;19.60;93.40
30534;DHT22;17318;52.390;9.754;2023-07-13T05:54:18;19.80;93.40
30534;DHT22;17318;52.390;9.754;2023-07-13T05:56:44;19.80;93.40
30534;DHT22;17318;52.390;9.754;2023-07-13T05:59:10;19.90;93.40
30534;DHT22;17318;52.390;9.754;2023-07-13T06:01:35;20.00;93.30
30534;DHT22;17318;52.390;9.754;2023-07-13T06:04:01;19.90;93.50
30534;DHT22;17318;52.390;9.754;2023-07-13T06:06:27;19.90;93.60
30534;DHT22;17318;52.390;9.754;2023-07-13T06:08:53;20.00;93.60
30534;DHT22;17318;52.390;9.754;2023-07-13T06:11:21;20.00;93.60
30534;DHT22;17318;52.390;9.754;2023-07-13T06:13:47;20.10;93.60
30534;DHT22;17318;52.390;9.754;2023-07-13T06:16:14;20.10;93.50
30534;DHT22;17318;52.390;9.754;2023-07-13T06:18:40;20.10;93.30
30534;DHT22;17318;52.390;9.754;2023-07-13T06:21:08;20.10;93.40
30534;DHT22;17318;52.390;9.754;2023-07-13T06:23:34;20.10;93.40
30534;DHT22;17318;52.390;9.754;2023-07-13T06:25:59;20.20;93.10
30534;DHT22;17318;52.390;9.754;2023-07-13T06:28:25;20.30;92.90
30534;DHT22;17318;52.390;9.754;2023-07-13T06:30:51;20.30;92.80
30534;DHT22;17318;52.390;9.754;2023-07-13T06:33:16;20.30;92.70
30534;DHT22;17318;52.390;9.754;2023-07-13T06:35:42;20.30;92.80
30534;DHT22;17318;52.390;9.754;2023-07-13T06:38:08;20.40;92.70
30534;DHT22;17318;52.390;9.754;2023-07-13T06:40:34;20.50;92.70
30534;DHT22;17318;52.390;9.754;2023-07-13T06:43:00;20.60;92.40
30534;DHT22;17318;52.390;9.754;2023-07-13T06:45:25;20.60;92.60
30534;DHT22;17318;52.390;9.754;2023-07-13T06:47:51;20.60;92.30
30534;DHT22;17318;52.390;9.754;2023-07-13T06:50:16;20.70;92.20
30534;DHT22;17318;52.390;9.754;2023-07-13T06:52:42;20.80;92.00
30534;DHT22;17318;52.390;9.754;2023-07-13T06:55:08;20.60;91.80
30534;DHT22;17318;52.390;9.754;2023-07-13T06:57:34;20.60;91.80
30534;DHT22;17318;52.390;9.754;2023-07-13T06:59:59;20.60;91.80
30534;DHT22;17318;52.390;9.754;2023-07-13T07:02:25;20.60;91.90
30534;DHT22;17318;52.390;9.754;2023-07-13T07:04:51;20.60;91.90
30534;DHT22;17318;52.390;9.754;2023-07-13T07:07:16;20.50;91.90
30534;DHT22;17318;52.390;9.754;2023-07-13T07:09:42;20.70;91.80
30534;DHT22;17318;52.390;9.754;2023-07-13T07:12:08;20.80;91.70
30534;DHT22;17318;52.390;9.754;2023-07-13T07:14:33;20.90;91.50
30534;DHT22;17318;52.390;9.754;2023-07-13T07:17:00;20.90;91.50
30534;DHT22;17318;52.390;9.754;2023-07-13T07:19:30;21.00;91.20
30534;DHT22;17318;52.390;9.754;2023-07-13T07:21:56;20.90;91.30
30534;DHT22;17318;52.390;9.754;2023-07-13T07:24:21;21.00;91.40
30534;DHT22;17318;52.390;9.754;2023-07-13T07:26:47;21.00;91.40
30534;DHT22;17318;52.390;9.754;2023-07-13T07:29:12;21.00;91.20
30534;DHT22;17318;52.390;9.754;2023-07-13T07:31:38;21.10;91.10
30534;DHT22;17318;52.390;9.754;2023-07-13T07:34:04;21.00;91.10
30534;DHT22;17318;52.390;9.754;2023-07-13T07:36:29;21.00;91.00
30534;DHT22;17318;52.390;9.754;2023-07-13T07:38:55;20.90;91.10
30534;DHT22;17318;52.390;9.754;2023-07-13T07:41:21;21.00;90.90
30534;DHT22;17318;52.390;9.754;2023-07-13T07:43:47;21.10;90.90
30534;DHT22;17318;52.390;9.754;2023-07-13T07:46:12;21.00;90.80
30534;DHT22;17318;52.390;9.754;2023-07-13T07:48:38;21.20;90.90
30534;DHT22;17318;52.390;9.754;2023-07-13T07:51:04;21.20;90.80
30534;DHT22;17318;52.390;9.754;2023-07-13T07:53:30;21.40;91.00
30534;DHT22;17318;52.390;9.754;2023-07-13T07:55:55;21.30;90.80
30534;DHT22;17318;52.390;9.754;2023-07-13T07:58:21;21.30;90.90
30534;DHT22;17318;52.390;9.754;2023-07-13T08:00:47;21.10;90.70
30534;DHT22;17318;52.390;9.754;2023-07-13T08:03:13;20.90;90.90
30534;DHT22;17318;52.390;9.754;2023-07-13T08:05:38;21.00;91.00
30534;DHT22;17318;52.390;9.754;2023-07-13T08:08:04;21.10;90.90
30534;DHT22;17318;52.390;9.754;2023-07-13T08:10:30;21.20;90.90
30534;DHT22;17318;52.390;9.754;2023-07-13T08:12:56;21.30;90.80
30534;DHT22;17318;52.390;9.754;2023-07-13T08:15:21;21.40;90.80
30534;DHT22;17318;52.390;9.754;2023-07-13T08:17:48;21.30;90.70
30534;DHT22;17318;52.390;9.754;2023-07-13T08:20:14;21.10;90.80
30534;DHT22;17318;52.390;9.754;2023-07-13T08:22:40;21.30;90.90
30534;DHT22;17318;52.390;9.754;2023-07-13T08:25:06;21.40;90.70
30534;DHT22;17318;52.390;9.754;2023-07-13T08:27:33;21.70;90.60
30534;DHT22;17318;52.390;9.754;2023-07-13T08:29:58;21.80;90.40
30534;DHT22;17318;52.390;9.754;2023-07-13T08:32:24;21.80;90.30
30534;DHT22;17318;52.390;9.754;2023-07-13T08:34:51;21.80;90.10
30534;DHT22;17318;52.390;9.754;2023-07-13T08:37:17;21.70;90.40
30534;DHT22;17318;52.390;9.754;2023-07-13T08:39:43;21.80;90.40
30534;DHT22;17318;52.390;9.754;2023-07-13T08:45:06;21.90;90.30
30534;DHT22;17318;52.390;9.754;2023-07-13T08:47:35;22.00;90.40
30534;DHT22;17318;52.390;9.754;2023-07-13T08:50:03;22.50;90.20
30534;DHT22;17318;52.390;9.754;2023-07-13T08:52:38;23.20;89.10
30534;DHT22;17318;52.390;9.754;2023-07-13T08:55:29;24.10;86.50
30534;DHT22;17318;52.390;9.754;2023-07-13T08:58:15;24.40;84.90
30534;DHT22;17318;52.390;9.754;2023-07-13T09:00:49;24.20;85.00
30534;DHT22;17318;52.390;9.754;2023-07-13T09:03:21;24.70;85.20
30534;DHT22;17318;52.390;9.754;2023-07-13T09:05:52;25.20;83.10
30534;DHT22;17318;52.390;9.754;2023-07-13T09:08:38;25.60;82.20
30534;DHT22;17318;52.390;9.754;2023-07-13T09:11:18;25.30;82.40
30534;DHT22;17318;52.390;9.754;2023-07-13T09:16:27;25.20;81.30
30534;DHT22;17318;52.390;9.754;2023-07-13T09:19:01;25.10;81.80
30534;DHT22;17318;52.390;9.754;2023-07-13T09:21:34;25.00;81.00
30534;DHT22;17318;52.390;9.754;2023-07-13T09:24:35;24.80;81.90
30534;DHT22;17318;52.390;9.754;2023-07-13T09:27:48;24.90;81.80
30534;DHT22;17318;52.390;9.754;2023-07-13T09:30:22;24.10;83.30
30534;DHT22;17318;52.390;9.754;2023-07-13T09:32:51;24.60;83.30
30534;DHT22;17318;52.390;9.754;2023-07-13T09:35:21;24.90;81.70
30534;DHT22;17318;52.390;9.754;2023-07-13T09:37:48;25.00;80.80
30534;DHT22;17318;52.390;9.754;2023-07-13T09:40:22;25.50;80.60
30534;DHT22;17318;52.390;9.754;2023-07-13T09:42:53;25.60;79.70
30534;DHT22;17318;52.390;9.754;2023-07-13T09:45:28;25.40;79.60
30534;DHT22;17318;52.390;9.754;2023-07-13T09:48:15;25.40;79.40
30534;DHT22;17318;52.390;9.754;2023-07-13T09:50:42;25.00;80.10
30534;DHT22;17318;52.390;9.754;2023-07-13T09:53:19;24.50;80.50
30534;DHT22;17318;52.390;9.754;2023-07-13T09:55:48;24.40;80.30
30534;DHT22;17318;52.390;9.754;2023-07-13T09:58:17;24.20;80.40
30534;DHT22;17318;52.390;9.754;2023-07-13T10:00:58;24.40;80.50
30534;DHT22;17318;52.390;9.754;2023-07-13T10:03:27;24.40;79.90
30534;DHT22;17318;52.390;9.754;2023-07-13T10:05:53;24.40;80.40
30534;DHT22;17318;52.390;9.754;2023-07-13T10:08:29;24.70;80.20
30534;DHT22;17318;52.390;9.754;2023-07-13T10:11:01;24.60;79.80
30534;DHT22;17318;52.390;9.754;2023-07-13T10:13:34;24.90;80.00
30534;DHT22;17318;52.390;9.754;2023-07-13T10:16:03;24.90;79.10
30534;DHT22;17318;52.390;9.754;2023-07-13T10:21:12;24.70;78.10
30534;DHT22;17318;52.390;9.754;2023-07-13T10:23:39;24.70;77.70
30534;DHT22;17318;52.390;9.754;2023-07-13T10:26:13;24.90;78.40
30534;DHT22;17318;52.390;9.754;2023-07-13T10:28:41;25.00;78.20
30534;DHT22;17318;52.390;9.754;2023-07-13T10:31:14;25.20;77.50
30534;DHT22;17318;52.390;9.754;2023-07-13T10:33:40;25.10;77.20
30534;DHT22;17318;52.390;9.754;2023-07-13T10:36:28;25.10;77.80
30534;DHT22;17318;52.390;9.754;2023-07-13T10:38:55;25.10;78.00
30534;DHT22;17318;52.390;9.754;2023-07-13T10:41:24;25.30;77.50
30534;DHT22;17318;52.390;9.754;2023-07-13T10:43:53;25.10;75.80
30534;DHT22;17318;52.390;9.754;2023-07-13T10:46:23;25.10;75.80
30534;DHT22;17318;52.390;9.754;2023-07-13T10:48:57;25.10;75.70
30534;DHT22;17318;52.390;9.754;2023-07-13T10:51:23;24.90;75.60
30534;DHT22;17318;52.390;9.754;2023-07-13T10:54:14;25.10;75.20
30534;DHT22;17318;52.390;9.754;2023-07-13T10:56:44;25.20;74.70
30534;DHT22;17318;52.390;9.754;2023-07-13T10:59:17;24.90;74.10
30534;DHT22;17318;52.390;9.754;2023-07-13T11:02:21;25.00;74.80
30534;DHT22;17318;52.390;9.754;2023-07-13T11:04:48;24.90;75.60
30534;DHT22;17318;52.390;9.754;2023-07-13T11:07:51;24.70;75.90
30534;DHT22;17318;52.390;9.754;2023-07-13T11:21:34;24.60;76.20
30534;DHT22;17318;52.390;9.754;2023-07-13T11:24:13;24.40;76.80
30534;DHT22;17318;52.390;9.754;2023-07-13T11:32:00;24.50;77.00
30534;DHT22;17318;52.390;9.754;2023-07-13T11:34:33;24.30;77.70
30534;DHT22;17318;52.390;9.754;2023-07-13T11:37:01;24.50;77.70
30534;DHT22;17318;52.390;9.754;2023-07-13T11:39:32;24.70;77.30
30534;DHT22;17318;52.390;9.754;2023-07-13T11:42:09;24.80;77.00
30534;DHT22;17318;52.390;9.754;2023-07-13T11:44:43;25.10;76.40
30534;DHT22;17318;52.390;9.754;2023-07-13T11:47:17;25.30;75.70
30534;DHT22;17318;52.390;9.754;2023-07-13T11:49:45;25.40;75.20
30534;DHT22;17318;52.390;9.754;2023-07-13T11:52:23;25.40;73.70
30534;DHT22;17318;52.390;9.754;2023-07-13T11:54:53;25.50;74.00
30534;DHT22;17318;52.390;9.754;2023-07-13T11:57:32;25.40;74.20
30534;DHT22;17318;52.390;9.754;2023-07-13T12:00:15;25.40;74.60
30534;DHT22;17318;52.390;9.754;2023-07-13T12:02:45;25.60;72.90
30534;DHT22;17318;52.390;9.754;2023-07-13T12:05:15;25.80;72.90
30534;DHT22;17318;52.390;9.754;2023-07-13T12:07:44;25.60;72.50
30534;DHT22;17318;52.390;9.754;2023-07-13T12:10:29;25.50;72.60
30534;DHT22;17318;52.390;9.754;2023-07-13T12:12:56;25.70;72.10
30534;DHT22;17318;52.390;9.754;2023-07-13T12:15:27;25.80;70.30
30534;DHT22;17318;52.390;9.754;2023-07-13T12:17:53;25.80;70.40
30534;DHT22;17318;52.390;9.754;2023-07-13T12:20:26;25.80;70.40
30534;DHT22;17318;52.390;9.754;2023-07-13T12:22:53;25.80;70.40
30534;DHT22;17318;52.390;9.754;2023-07-13T12:25:19;25.90;70.80
30534;DHT22;17318;52.390;9.754;2023-07-13T12:27:50;26.00;70.80
30534;DHT22;17318;52.390;9.754;2023-07-13T12:30:30;26.00;70.50
30534;DHT22;17318;52.390;9.754;2023-07-13T12:33:01;26.10;70.50
30534;DHT22;17318;52.390;9.754;2023-07-13T12:35:29;26.00;69.50
30534;DHT22;17318;52.390;9.754;2023-07-13T12:37:57;25.90;69.70
30534;DHT22;17318;52.390;9.754;2023-07-13T12:40:32;25.60;70.70
30534;DHT22;17318;52.390;9.754;2023-07-13T12:42:59;25.40;71.60
30534;DHT22;17318;52.390;9.754;2023-07-13T12:45:27;25.60;72.00
30534;DHT22;17318;52.390;9.754;2023-07-13T12:48:03;25.40;71.20
30534;DHT22;17318;52.390;9.754;2023-07-13T12:50:42;25.50;70.80
30534;DHT22;17318;52.390;9.754;2023-07-13T12:53:21;25.60;70.40
30534;DHT22;17318;52.390;9.754;2023-07-13T12:55:48;25.60;70.00
30534;DHT22;17318;52.390;9.754;2023-07-13T12:58:40;25.50;70.70
30534;DHT22;17318;52.390;9.754;2023-07-13T13:01:12;25.50;70.90
30534;DHT22;17318;52.390;9.754;2023-07-13T13:03:44;25.20;70.60
30534;DHT22;17318;52.390;9.754;2023-07-13T13:08:47;25.10;71.50
30534;DHT22;17318;52.390;9.754;2023-07-13T13:11:14;25.10;72.00
30534;DHT22;17318;52.390;9.754;2023-07-13T13:13:42;24.60;82.80
30534;DHT22;17318;52.390;9.754;2023-07-13T13:16:32;24.40;89.10
30534;DHT22;17318;52.390;9.754;2023-07-13T13:19:12;24.40;90.00
30534;DHT22;17318;52.390;9.754;2023-07-13T13:21:38;24.40;88.10
30534;DHT22;17318;52.390;9.754;2023-07-13T13:24:14;24.50;88.60
30534;DHT22;17318;52.390;9.754;2023-07-13T13:26:41;24.50;92.00
30534;DHT22;17318;52.390;9.754;2023-07-13T13:29:16;24.50;90.40
30534;DHT22;17318;52.390;9.754;2023-07-13T13:31:43;24.50;88.70
30534;DHT22;17318;52.390;9.754;2023-07-13T13:34:14;24.40;90.90
30534;DHT22;17318;52.390;9.754;2023-07-13T13:36:40;24.30;91.00
30534;DHT22;17318;52.390;9.754;2023-07-13T13:39:26;24.30;91.10
30534;DHT22;17318;52.390;9.754;2023-07-13T13:41:53;24.10;90.40
30534;DHT22;17318;52.390;9.754;2023-07-13T13:44:20;23.60;89.40
30534;DHT22;17318;52.390;9.754;2023-07-13T13:46:49;23.50;88.60
30534;DHT22;17318;52.390;9.754;2023-07-13T13:49:19;23.50;91.90
30534;DHT22;17318;52.390;9.754;2023-07-13T13:51:46;23.50;93.60
30534;DHT22;17318;52.390;9.754;2023-07-13T13:54:13;23.40;93.80
30534;DHT22;17318;52.390;9.754;2023-07-13T13:56:42;23.20;94.30
30534;DHT22;17318;52.390;9.754;2023-07-13T13:59:08;23.20;95.00
30534;DHT22;17318;52.390;9.754;2023-07-13T14:01:35;23.20;95.20
30534;DHT22;17318;52.390;9.754;2023-07-13T14:04:01;23.30;96.20
30534;DHT22;17318;52.390;9.754;2023-07-13T14:06:26;23.20;95.70
30534;DHT22;17318;52.390;9.754;2023-07-13T14:08:53;23.30;96.60
30534;DHT22;17318;52.390;9.754;2023-07-13T14:11:21;23.20;95.70
30534;DHT22;17318;52.390;9.754;2023-07-13T14:13:53;23.20;96.40
30534;DHT22;17318;52.390;9.754;2023-07-13T14:16:21;23.20;96.30
30534;DHT22;17318;52.390;9.754;2023-07-13T14:18:49;23.20;96.80
30534;DHT22;17318;52.390;9.754;2023-07-13T14:21:20;23.20;96.90
30534;DHT22;17318;52.390;9.754;2023-07-13T14:23:47;23.20;96.80
30534;DHT22;17318;52.390;9.754;2023-07-13T14:26:17;23.20;97.00
30534;DHT22;17318;52.390;9.754;2023-07-13T14:28:45;23.20;96.90
30534;DHT22;17318;52.390;9.754;2023-07-13T14:31:14;23.30;97.20
30534;DHT22;17318;52.390;9.754;2023-07-13T14:33:39;23.10;96.00
30534;DHT22;17318;52.390;9.754;2023-07-13T14:36:23;23.10;95.90
30534;DHT22;17318;52.390;9.754;2023-07-13T14:38:50;22.90;95.70
30534;DHT22;17318;52.390;9.754;2023-07-13T14:41:16;22.70;95.20
30534;DHT22;17318;52.390;9.754;2023-07-13T14:43:42;22.30;95.30
30534;DHT22;17318;52.390;9.754;2023-07-13T14:46:29;22.00;95.00
30534;DHT22;17318;52.390;9.754;2023-07-13T14:51:29;21.50;95.50
30534;DHT22;17318;52.390;9.754;2023-07-13T14:53:55;21.10;94.80
30534;DHT22;17318;52.390;9.754;2023-07-13T14:56:20;21.00;94.90
30534;DHT22;17318;52.390;9.754;2023-07-13T14:58:46;21.10;94.80
30534;DHT22;17318;52.390;9.754;2023-07-13T15:01:14;21.20;94.90
30534;DHT22;17318;52.390;9.754;2023-07-13T15:03:46;20.90;95.60
30534;DHT22;17318;52.390;9.754;2023-07-13T15:06:13;20.90;95.60
30534;DHT22;17318;52.390;9.754;2023-07-13T15:08:39;21.00;96.00
30534;DHT22;17318;52.390;9.754;2023-07-13T15:11:07;20.80;96.60
30534;DHT22;17318;52.390;9.754;2023-07-13T15:13:33;20.60;96.70
30534;DHT22;17318;52.390;9.754;2023-07-13T15:16:00;20.60;96.30
30534;DHT22;17318;52.390;9.754;2023-07-13T15:18:26;20.60;96.40
30534;DHT22;17318;52.390;9.754;2023-07-13T15:20:53;20.50;96.80
30534;DHT22;17318;52.390;9.754;2023-07-13T15:23:22;20.50;96.40
30534;DHT22;17318;52.390;9.754;2023-07-13T15:25:48;20.10;96.70
30534;DHT22;17318;52.390;9.754;2023-07-13T15:28:14;20.10;96.40
30534;DHT22;17318;52.390;9.754;2023-07-13T15:30:48;19.90;96.10
30534;DHT22;17318;52.390;9.754;2023-07-13T15:33:15;19.90;96.20
30534;DHT22;17318;52.390;9.754;2023-07-13T15:35:43;19.90;96.20
30534;DHT22;17318;52.390;9.754;2023-07-13T15:38:18;20.00;96.50
30534;DHT22;17318;52.390;9.754;2023-07-13T15:40:47;19.80;96.20
30534;DHT22;17318;52.390;9.754;2023-07-13T15:43:14;19.90;96.30
30534;DHT22;17318;52.390;9.754;2023-07-13T15:45:40;19.80;95.90
30534;DHT22;17318;52.390;9.754;2023-07-13T15:48:25;19.90;96.20
30534;DHT22;17318;52.390;9.754;2023-07-13T15:50:54;19.70;96.30
30534;DHT22;17318;52.390;9.754;2023-07-13T15:53:25;19.70;96.50
30534;DHT22;17318;52.390;9.754;2023-07-13T15:55:52;19.70;96.20
30534;DHT22;17318;52.390;9.754;2023-07-13T15:58:18;19.60;96.70
30534;DHT22;17318;52.390;9.754;2023-07-13T16:00:44;19.70;96.60
30534;DHT22;17318;52.390;9.754;2023-07-13T16:03:10;19.60;96.80
30534;DHT22;17318;52.390;9.754;2023-07-13T16:05:36;19.60;96.70
30534;DHT22;17318;52.390;9.754;2023-07-13T16:08:05;19.80;96.80
30534;DHT22;17318;52.390;9.754;2023-07-13T16:10:34;19.80;96.70
30534;DHT22;17318;52.390;9.754;2023-07-13T16:13:01;20.00;96.60
30534;DHT22;17318;52.390;9.754;2023-07-13T16:15:27;19.90;96.40